Time;durP1;ratioP1;P1;durP2;ratioP2;P2;SDS_P1;SDS_P2;PMS_P1;PMS_P2;Temp;Humidity;BMP_temperature;BMP_pressure;BME280_temperature;BME280_humidity;BME280_pressure;Samples;Min_cycle;Max_cycle;Signal;HPM_P1;HPM_P2
2023/09/14 00:01:15;;;;;;;26.80;21.80;;;;;;;18.29;77.31;97105.83;105168;1251;100851;-80
2023/09/14 00:03:43;;;;;;;27.80;21.20;;;;;;;18.29;77.35;97108.07;104882;1259;101602;-80
2023/09/14 00:06:11;;;;;;;25.00;22.20;;;;;;;18.31;77.27;97107.80;105066;1256;99800;-80
2023/09/14 00:08:38;;;;;;;26.30;21.20;;;;;;;18.31;77.46;97102.67;105089;1256;96683;-81
2023/09/14 00:11:06;;;;;;;28.40;21.60;;;;;;;18.30;77.25;97102.83;105103;1266;97911;-80
2023/09/14 00:13:34;;;;;;;25.80;21.20;;;;;;;18.32;77.23;97104.64;105115;1256;100926;-80
2023/09/14 00:16:02;;;;;;;25.80;20.30;;;;;;;18.34;77.25;97101.65;105084;1257;101453;-80
2023/09/14 00:18:30;;;;;;;25.90;21.40;;;;;;;18.35;77.38;97099.83;105101;1274;100201;-81
2023/09/14 00:20:58;;;;;;;24.90;21.20;;;;;;;18.36;77.39;97099.78;105079;1256;97525;-81
2023/09/14 00:23:25;;;;;;;23.50;21.10;;;;;;;18.38;77.36;97100.22;105108;1256;97686;-81
2023/09/14 00:25:53;;;;;;;25.30;21.00;;;;;;;18.37;77.59;97105.13;105056;1256;102176;-80
2023/09/14 00:28:21;;;;;;;24.00;20.20;;;;;;;18.35;77.59;97104.92;105134;1257;100493;-76
2023/09/14 00:30:52;;;;;;;26.00;21.60;;;;;;;18.34;77.58;97105.36;105089;1264;99843;-81
2023/09/14 00:33:23;;;;;;;27.60;19.90;;;;;;;18.33;77.93;97100.27;104711;1274;96610;-81
2023/09/14 00:35:51;;;;;;;27.10;20.50;;;;;;;18.30;77.78;97090.86;104981;1260;98024;-81
2023/09/14 00:38:19;;;;;;;23.40;20.90;;;;;;;18.30;77.78;97088.45;105143;1256;101811;-80
2023/09/14 00:40:48;;;;;;;25.20;20.70;;;;;;;18.31;77.77;97088.89;105116;1257;101306;-80
2023/09/14 00:43:15;;;;;;;25.80;22.20;;;;;;;18.33;77.67;97093.83;105076;1251;109626;-81
2023/09/14 00:45:43;;;;;;;23.40;20.70;;;;;;;18.32;78.03;97097.00;105088;1274;96696;-81
2023/09/14 00:48:11;;;;;;;23.70;21.10;;;;;;;18.31;78.08;97101.52;105099;1257;97761;-81
2023/09/14 00:50:39;;;;;;;25.90;19.80;;;;;;;18.30;77.91;97102.89;105085;1255;102168;-80
2023/09/14 00:53:14;;;;;;;23.40;21.00;;;;;;;18.31;77.85;97103.21;105119;1257;99985;-80
2023/09/14 00:55:44;;;;;;;25.00;20.40;;;;;;;18.32;77.92;97104.70;104918;1274;100039;-80
2023/09/14 00:58:15;;;;;;;24.00;20.10;;;;;;;18.33;77.91;97096.02;105122;1267;97333;-81
2023/09/14 01:00:45;;;;;;;25.00;20.70;;;;;;;18.32;78.02;97093.39;104802;1259;97080;-81
2023/09/14 01:03:13;;;;;;;24.60;20.80;;;;;;;18.32;77.94;97092.89;104774;1271;103070;-80
2023/09/14 01:05:43;;;;;;;22.50;20.10;;;;;;;18.32;77.87;97091.36;105082;1267;101414;-76
2023/09/14 01:08:11;;;;;;;23.10;19.80;;;;;;;18.33;77.63;97091.42;104889;1261;106859;-76
2023/09/14 01:10:39;;;;;;;26.80;21.00;;;;;;;18.33;77.84;97089.52;105074;1251;96609;-76
2023/09/14 01:13:13;;;;;;;24.10;20.30;;;;;;;18.33;77.96;97086.62;105111;1265;96650;-76
2023/09/14 01:15:49;;;;;;;24.70;21.90;;;;;;;18.33;77.98;97088.30;105113;1251;102444;-76
2023/09/14 01:18:37;;;;;;;26.70;20.60;;;;;;;18.33;77.89;97089.52;105094;1257;101109;-76
2023/09/14 01:21:30;;;;;;;28.50;20.20;;;;;;;18.34;77.98;97093.83;105061;1269;99945;-76
2023/09/14 01:24:16;;;;;;;24.40;20.60;;;;;;;18.33;78.08;97098.64;105048;1257;97380;-76
2023/09/14 01:26:46;;;;;;;25.10;20.90;;;;;;;18.33;78.05;97098.91;105089;1257;97882;-80
2023/09/14 01:29:14;;;;;;;23.50;20.00;;;;;;;18.30;78.36;97098.52;105131;1257;111847;-81
2023/09/14 01:31:42;;;;;;;25.00;20.20;;;;;;;18.27;78.47;97095.38;105101;1251;100347;-81
2023/09/14 01:34:10;;;;;;;22.50;20.10;;;;;;;18.26;78.59;97096.19;105079;1257;99063;-81
2023/09/14 01:36:59;;;;;;;25.20;20.40;;;;;;;18.24;78.65;97099.62;105097;1257;97221;-80
2023/09/14 01:39:28;;;;;;;24.90;20.70;;;;;;;18.23;78.62;97102.02;104957;1251;97125;-80
2023/09/14 01:41:57;;;;;;;24.30;21.00;;;;;;;18.24;78.73;97104.65;104824;1260;100000;-81
2023/09/14 01:44:26;;;;;;;24.10;20.70;;;;;;;18.25;78.76;97101.81;104949;1253;101521;-81
2023/09/14 01:46:55;;;;;;;26.40;21.50;;;;;;;18.25;78.73;97100.83;104686;1251;97766;-80
2023/09/14 01:49:24;;;;;;;24.50;21.40;;;;;;;18.26;78.84;97097.23;105095;1257;97181;-81
2023/09/14 01:51:53;;;;;;;23.00;20.70;;;;;;;18.23;79.17;97096.95;104981;1251;96989;-81
2023/09/14 01:54:21;;;;;;;24.90;20.80;;;;;;;18.17;79.45;97093.32;105219;1264;111226;-82
2023/09/14 01:56:50;;;;;;;25.20;21.80;;;;;;;18.12;79.55;97098.32;105150;1256;100374;-83
2023/09/14 01:59:17;;;;;;;25.80;22.90;;;;;;;18.12;79.58;97101.77;105094;1257;99801;-82
2023/09/14 02:01:45;;;;;;;25.10;21.70;;;;;;;18.13;79.65;97107.78;105137;1257;96562;-80
2023/09/14 02:04:13;;;;;;;27.80;21.60;;;;;;;18.14;79.65;97109.74;105128;1257;97105;-81
2023/09/14 02:06:40;;;;;;;28.70;23.90;;;;;;;18.15;79.73;97114.11;105083;1257;102230;-81
2023/09/14 02:09:09;;;;;;;26.60;22.90;;;;;;;18.17;79.94;97115.07;105137;1251;100045;-81
2023/09/14 02:11:36;;;;;;;31.60;24.20;;;;;;;18.14;80.28;97114.13;104943;1257;180411;-81
2023/09/14 02:14:04;;;;;;;29.40;24.00;;;;;;;18.11;80.07;97109.59;105064;1256;96641;-81
2023/09/14 02:16:32;;;;;;;29.10;24.90;;;;;;;18.11;80.14;97113.14;105089;1257;97003;-81
2023/09/14 02:19:00;;;;;;;31.00;25.50;;;;;;;18.10;80.51;97112.53;105083;1257;102508;-82
2023/09/14 02:21:27;;;;;;;29.60;26.30;;;;;;;18.07;80.62;97116.66;105056;1274;100026;-82
2023/09/14 02:23:55;;;;;;;28.50;25.50;;;;;;;18.04;80.75;97118.55;105087;1256;99938;-77
2023/09/14 02:26:22;;;;;;;28.20;24.60;;;;;;;18.03;80.80;97120.73;105061;1274;96578;-77
2023/09/14 02:28:50;;;;;;;28.20;25.10;;;;;;;18.04;80.80;97123.80;105114;1257;97206;-77
2023/09/14 02:31:19;;;;;;;28.30;25.30;;;;;;;18.04;80.80;97136.84;105074;1274;102278;-77
2023/09/14 02:33:47;;;;;;;26.80;23.80;;;;;;;18.03;81.01;97142.58;104842;1260;99412;-78
2023/09/14 02:36:15;;;;;;;27.70;24.00;;;;;;;18.02;81.24;97144.27;104969;1257;99931;-78
2023/09/14 02:38:44;;;;;;;27.90;22.50;;;;;;;18.00;81.31;97140.48;105000;1257;96555;-77
2023/09/14 02:41:12;;;;;;;25.90;23.10;;;;;;;17.99;81.35;97131.05;105067;1273;97872;-81
2023/09/14 02:43:39;;;;;;;29.30;24.00;;;;;;;17.97;81.63;97119.84;105067;1257;100939;-76
2023/09/14 02:46:07;;;;;;;29.80;24.40;;;;;;;17.91;81.94;97117.89;105048;1257;101365;-77
2023/09/14 02:48:35;;;;;;;27.60;22.90;;;;;;;17.87;82.05;97125.07;105066;1267;100106;-77
2023/09/14 02:51:03;;;;;;;26.20;23.20;;;;;;;17.85;82.65;97129.01;105053;1257;96599;-76
2023/09/14 02:53:30;;;;;;;26.20;22.10;;;;;;;17.82;82.50;97120.84;105110;1255;97240;-75
2023/09/14 02:55:58;;;;;;;26.10;23.00;;;;;;;17.83;82.41;97115.55;105091;1265;102350;-77
2023/09/14 02:58:26;;;;;;;25.80;23.00;;;;;;;17.84;82.71;97113.27;105095;1256;100411;-76
2023/09/14 03:00:53;;;;;;;29.10;22.40;;;;;;;17.81;83.03;97111.39;105068;1255;99249;-79
2023/09/14 03:03:21;;;;;;;25.00;21.80;;;;;;;17.75;83.46;97119.81;105090;1256;97073;-84
2023/09/14 03:05:49;;;;;;;25.40;20.60;;;;;;;17.70;83.27;97130.55;105150;1257;97012;-84
2023/09/14 03:08:17;;;;;;;22.20;19.50;;;;;;;17.68;83.17;97136.31;105058;1267;101252;-83
2023/09/14 03:10:45;;;;;;;24.70;20.70;;;;;;;17.70;83.29;97137.48;105132;1251;100161;-84
2023/09/14 03:13:12;;;;;;;23.10;19.20;;;;;;;17.71;83.30;97139.17;105103;1265;100073;-84
2023/09/14 03:15:40;;;;;;;21.10;18.80;;;;;;;17.73;83.40;97143.94;105072;1251;96890;-84
2023/09/14 03:18:07;;;;;;;27.80;18.60;;;;;;;17.72;83.43;97145.89;105095;1251;97512;-83
2023/09/14 03:20:38;;;;;;;21.20;18.20;;;;;;;17.73;83.41;97153.67;105100;1257;101336;-75
2023/09/14 03:23:06;;;;;;;19.70;17.60;;;;;;;17.75;83.37;97165.23;105085;1267;100010;-82
2023/09/14 03:25:33;;;;;;;21.10;18.00;;;;;;;17.77;83.49;97175.51;105061;1267;99969;-83
2023/09/14 03:28:01;;;;;;;21.20;18.10;;;;;;;17.77;83.42;97186.59;105038;1272;96562;-83
2023/09/14 03:30:29;;;;;;;19.10;16.40;;;;;;;17.79;83.52;97180.28;105103;1256;97029;-83
2023/09/14 03:32:56;;;;;;;25.60;16.40;;;;;;;17.81;83.56;97163.91;105084;1251;102512;-83
2023/09/14 03:35:24;;;;;;;18.30;15.50;;;;;;;17.81;83.56;97146.98;105102;1266;100315;-82
2023/09/14 03:37:52;;;;;;;19.80;16.90;;;;;;;17.82;83.56;97140.16;105122;1257;100177;-83
2023/09/14 03:40:19;;;;;;;21.30;16.90;;;;;;;17.81;83.84;97140.05;105073;1257;97502;-75
2023/09/14 03:42:47;;;;;;;17.70;15.90;;;;;;;17.76;83.95;97142.48;105040;1274;97228;-75
2023/09/14 03:45:15;;;;;;;20.80;16.10;;;;;;;17.72;83.88;97142.23;105075;1257;102175;-75
2023/09/14 03:47:43;;;;;;;17.10;15.10;;;;;;;17.70;83.92;97139.92;105050;1274;100065;-76
2023/09/14 03:50:11;;;;;;;19.70;16.40;;;;;;;17.69;83.85;97141.29;105088;1274;100074;-75
2023/09/14 03:52:39;;;;;;;18.80;15.70;;;;;;;17.71;83.87;97150.96;105114;1251;97864;-75
2023/09/14 03:55:07;;;;;;;20.00;15.80;;;;;;;17.72;83.98;97162.98;105109;1256;97018;-75
2023/09/14 03:57:35;;;;;;;19.10;13.60;;;;;;;17.73;84.08;97171.57;105072;1257;101735;-76
2023/09/14 04:00:09;;;;;;;15.10;12.80;;;;;;;17.73;84.04;97176.64;104830;1259;101722;-83
2023/09/14 04:02:37;;;;;;;14.10;12.20;;;;;;;17.73;84.07;97178.99;105176;1257;99902;-82
2023/09/14 04:05:31;;;;;;;13.40;11.90;;;;;;;17.74;84.07;97184.23;105101;1256;97151;-83
2023/09/14 04:07:59;;;;;;;13.90;11.70;;;;;;;17.75;84.07;97185.56;105096;1253;97469;-80
2023/09/14 04:10:26;;;;;;;13.40;11.40;;;;;;;17.75;83.97;97186.27;105062;1251;100917;-81
2023/09/14 04:13:33;;;;;;;12.20;10.90;;;;;;;17.75;84.02;97188.55;105086;1257;100115;-78
2023/09/14 04:16:03;;;;;;;13.20;11.40;;;;;;;17.75;84.14;97189.09;105041;1271;99870;-79
2023/09/14 04:18:34;;;;;;;13.30;11.50;;;;;;;17.75;84.10;97188.07;104820;1256;97271;-78
2023/09/14 04:21:03;;;;;;;11.60;10.40;;;;;;;17.76;83.98;97186.48;104767;1252;96646;-78
2023/09/14 04:23:31;;;;;;;11.50;10.40;;;;;;;17.74;84.02;97185.33;104774;1251;101792;-78
2023/09/14 04:26:01;;;;;;;13.20;10.40;;;;;;;17.72;84.04;97184.23;105075;1256;100028;-78
2023/09/14 04:28:29;;;;;;;11.20;10.00;;;;;;;17.72;83.92;97179.85;105136;1272;97923;-78
2023/09/14 04:30:59;;;;;;;12.10;10.30;;;;;;;17.73;83.91;97177.85;105013;1257;97046;-78
2023/09/14 04:33:28;;;;;;;10.90;9.80;;;;;;;17.74;84.04;97176.93;104672;1263;98371;-78
2023/09/14 04:36:05;;;;;;;12.00;9.50;;;;;;;17.73;84.01;97175.17;104769;1254;101251;-77
2023/09/14 04:38:33;;;;;;;11.30;10.10;;;;;;;17.73;84.07;97170.70;105150;1255;100135;-82
2023/09/14 04:41:04;;;;;;;10.70;9.60;;;;;;;17.75;84.03;97174.64;105065;1267;100133;-81
2023/09/14 04:43:32;;;;;;;11.00;9.40;;;;;;;17.76;84.04;97172.61;105056;1265;96619;-81
2023/09/14 04:46:03;;;;;;;11.10;10.10;;;;;;;17.76;84.11;97169.11;105120;1270;97074;-79
2023/09/14 04:48:31;;;;;;;10.60;9.60;;;;;;;17.77;84.03;97171.14;105135;1261;102304;-81
2023/09/14 04:51:00;;;;;;;11.30;9.60;;;;;;;17.78;83.99;97172.02;105095;1257;101507;-82
2023/09/14 04:53:28;;;;;;;11.30;10.10;;;;;;;17.78;83.98;97172.52;105170;1251;100022;-82
2023/09/14 04:55:56;;;;;;;11.20;10.10;;;;;;;17.79;83.86;97176.62;105056;1255;96622;-81
2023/09/14 04:58:24;;;;;;;10.50;9.50;;;;;;;17.80;83.80;97175.98;105076;1256;97131;-81
2023/09/14 05:00:52;;;;;;;10.20;9.20;;;;;;;17.81;83.79;97179.05;105101;1257;102465;-80
2023/09/14 05:03:20;;;;;;;10.20;9.10;;;;;;;17.82;83.79;97181.66;105119;1253;101417;-81
2023/09/14 05:05:56;;;;;;;11.90;10.10;;;;;;;17.81;83.92;97182.21;105090;1256;99018;-82
2023/09/14 05:08:25;;;;;;;11.80;9.60;;;;;;;17.81;83.67;97186.58;104669;1251;97259;-82
2023/09/14 05:10:53;;;;;;;12.80;9.40;;;;;;;17.82;83.83;97189.98;104728;1262;97360;-81
2023/09/14 05:13:21;;;;;;;10.90;9.60;;;;;;;17.82;83.85;97184.30;105088;1251;101499;-80
2023/09/14 05:15:49;;;;;;;10.50;9.40;;;;;;;17.82;84.11;97188.00;105131;1251;101330;-82
2023/09/14 05:18:17;;;;;;;13.00;9.60;;;;;;;17.78;84.17;97186.38;105047;1255;100685;-82
2023/09/14 05:20:46;;;;;;;13.30;10.10;;;;;;;17.77;84.31;97186.76;105098;1251;96634;-83
2023/09/14 05:23:13;;;;;;;13.20;10.00;;;;;;;17.77;84.26;97185.00;105118;1264;96994;-82
2023/09/14 05:25:42;;;;;;;13.60;10.50;;;;;;;17.78;84.36;97181.73;105138;1257;101211;-82
2023/09/14 05:28:09;;;;;;;11.70;10.00;;;;;;;17.79;84.43;97180.88;105095;1257;101502;-82
2023/09/14 05:30:38;;;;;;;12.90;10.50;;;;;;;17.79;84.52;97181.75;105118;1256;99105;-82
2023/09/14 05:33:07;;;;;;;12.60;11.40;;;;;;;17.80;84.62;97178.48;104837;1256;96829;-82
2023/09/14 05:35:35;;;;;;;12.80;11.00;;;;;;;17.81;84.57;97178.66;105161;1257;97302;-82
2023/09/14 05:38:02;;;;;;;13.60;11.00;;;;;;;17.80;84.71;97177.66;105101;1256;101219;-83
2023/09/14 05:40:31;;;;;;;13.80;11.10;;;;;;;17.77;84.72;97181.40;105063;1257;101519;-81
2023/09/14 05:42:59;;;;;;;13.10;11.70;;;;;;;17.77;84.80;97180.80;105081;1258;100134;-82
2023/09/14 05:45:26;;;;;;;13.40;11.80;;;;;;;17.79;84.75;97184.81;105074;1255;96562;-83
2023/09/14 05:47:54;;;;;;;13.10;11.70;;;;;;;17.81;84.84;97188.11;105084;1257;96991;-83
2023/09/14 05:50:22;;;;;;;13.30;12.00;;;;;;;17.83;84.82;97187.85;105070;1257;101438;-83
2023/09/14 05:52:50;;;;;;;14.00;12.60;;;;;;;17.86;84.85;97190.23;105091;1251;101237;-82
2023/09/14 05:55:17;;;;;;;13.90;12.40;;;;;;;17.87;84.98;97192.50;105072;1251;99914;-81
2023/09/14 05:57:45;;;;;;;13.90;12.40;;;;;;;17.88;85.06;97191.38;105025;1268;97314;-81
2023/09/14 06:00:13;;;;;;;13.20;11.90;;;;;;;17.90;85.03;97191.38;105114;1251;97003;-80
2023/09/14 06:02:42;;;;;;;13.30;12.00;;;;;;;17.90;85.07;97189.52;105129;1255;102375;-80
2023/09/14 06:05:11;;;;;;;15.10;13.50;;;;;;;17.91;85.10;97191.50;105087;1256;101436;-80
2023/09/14 06:07:38;;;;;;;15.90;13.00;;;;;;;17.92;85.17;97190.70;104609;1262;98415;-80
2023/09/14 06:10:07;;;;;;;14.10;12.70;;;;;;;17.94;85.12;97195.52;104641;1271;97020;-80
2023/09/14 06:12:35;;;;;;;15.70;14.00;;;;;;;17.95;85.11;97201.64;104629;1262;98453;-82
2023/09/14 06:15:03;;;;;;;16.50;14.80;;;;;;;17.97;85.27;97203.08;104655;1262;100841;-80
2023/09/14 06:17:31;;;;;;;16.70;14.90;;;;;;;17.97;85.16;97205.20;104695;1260;99961;-80
2023/09/14 06:19:59;;;;;;;16.80;14.70;;;;;;;17.97;85.14;97208.81;104609;1261;99111;-79
2023/09/14 06:22:27;;;;;;;15.90;13.90;;;;;;;17.97;85.26;97210.50;104647;1262;96837;-80
2023/09/14 06:24:54;;;;;;;15.40;13.00;;;;;;;17.96;85.32;97214.65;104610;1262;98161;-80
2023/09/14 06:27:22;;;;;;;13.60;11.20;;;;;;;17.94;85.24;97216.38;104667;1260;102201;-79
2023/09/14 06:29:49;;;;;;;9.80;8.80;;;;;;;17.92;85.33;97220.18;104586;1260;101280;-81
2023/09/14 06:32:17;;;;;;;7.70;7.00;;;;;;;17.90;85.09;97218.30;104616;1260;99598;-81
2023/09/14 06:34:45;;;;;;;6.70;5.60;;;;;;;17.84;85.69;97222.04;104635;1261;97150;-82
2023/09/14 06:37:12;;;;;;;5.80;5.10;;;;;;;17.79;85.37;97222.92;104596;1260;96629;-82
2023/09/14 06:39:40;;;;;;;9.40;7.30;;;;;;;17.77;85.20;97225.52;104901;1264;100876;-82
2023/09/14 06:42:08;;;;;;;11.50;8.50;;;;;;;17.77;85.33;97226.78;105022;1258;100075;-82
2023/09/14 06:44:36;;;;;;;11.00;7.80;;;;;;;17.79;85.31;97227.08;105040;1274;99931;-82
2023/09/14 06:47:04;;;;;;;9.10;7.70;;;;;;;17.80;85.39;97227.25;105073;1257;96913;-81
2023/09/14 06:49:32;;;;;;;11.50;8.20;;;;;;;17.81;85.34;97226.17;105096;1256;97194;-82
2023/09/14 06:52:00;;;;;;;10.20;7.80;;;;;;;17.81;85.24;97228.46;105133;1256;102228;-80
2023/09/14 06:54:28;;;;;;;8.70;7.40;;;;;;;17.82;85.34;97231.04;105076;1257;100352;-79
2023/09/14 06:56:56;;;;;;;9.50;7.40;;;;;;;17.82;85.44;97233.77;104775;1251;98607;-80
2023/09/14 06:59:23;;;;;;;10.40;8.30;;;;;;;17.83;85.35;97237.10;105068;1257;97236;-79
2023/09/14 07:01:51;;;;;;;9.70;8.70;;;;;;;17.85;85.34;97238.66;105182;1257;97893;-79
2023/09/14 07:04:19;;;;;;;11.50;9.30;;;;;;;17.86;85.48;97242.70;105087;1251;102417;-80
2023/09/14 07:06:47;;;;;;;9.40;8.30;;;;;;;17.86;85.49;97248.11;105073;1257;101361;-80
2023/09/14 07:09:14;;;;;;;9.10;8.00;;;;;;;17.85;85.50;97250.94;105103;1266;99081;-79
2023/09/14 07:11:42;;;;;;;9.90;8.60;;;;;;;17.85;85.50;97256.02;105119;1256;96561;-82
2023/09/14 07:14:10;;;;;;;9.00;8.10;;;;;;;17.86;85.52;97257.29;104715;1259;97192;-81
2023/09/14 07:16:37;;;;;;;10.30;7.80;;;;;;;17.88;85.49;97264.44;104466;1262;101861;-82
2023/09/14 07:19:05;;;;;;;11.00;9.20;;;;;;;17.89;85.45;97264.83;104468;1263;101047;-82
2023/09/14 07:21:36;;;;;;;11.20;9.30;;;;;;;17.90;85.58;97265.27;104475;1260;100100;-82
2023/09/14 07:24:06;;;;;;;11.50;9.70;;;;;;;17.90;85.71;97267.28;104462;1260;96715;-82
2023/09/14 07:26:38;;;;;;;12.00;9.60;;;;;;;17.90;85.69;97271.71;104525;1260;97860;-82
2023/09/14 07:29:06;;;;;;;11.50;9.70;;;;;;;17.90;85.69;97268.98;104368;1269;100799;-82
2023/09/14 07:31:34;;;;;;;12.20;10.30;;;;;;;17.91;85.64;97272.38;104482;1263;101525;-79
2023/09/14 07:34:04;;;;;;;13.70;10.20;;;;;;;17.91;85.73;97275.00;104458;1263;98985;-78
2023/09/14 07:36:31;;;;;;;14.60;11.10;;;;;;;17.92;85.70;97279.29;104451;1262;97936;-79
2023/09/14 07:38:59;;;;;;;12.80;10.50;;;;;;;17.94;85.69;97279.52;104478;1260;97132;-79
2023/09/14 07:41:27;;;;;;;12.30;10.70;;;;;;;17.96;85.77;97278.60;104464;1260;102371;-78
2023/09/14 07:43:55;;;;;;;14.20;10.50;;;;;;;17.96;85.90;97280.52;104334;1268;100376;-78
2023/09/14 07:46:23;;;;;;;12.50;9.60;;;;;;;17.96;85.72;97281.16;104634;1259;98584;-78
2023/09/14 07:48:50;;;;;;;11.00;9.10;;;;;;;17.94;85.69;97285.24;105019;1257;97174;-76
2023/09/14 07:51:18;;;;;;;12.00;10.40;;;;;;;17.93;85.68;97285.19;105163;1256;97102;-77
2023/09/14 07:53:46;;;;;;;11.60;9.10;;;;;;;17.95;85.66;97282.24;105090;1251;111798;-77
2023/09/14 07:56:13;;;;;;;11.40;9.70;;;;;;;17.95;85.66;97283.45;105098;1251;100166;-77
2023/09/14 07:58:43;;;;;;;12.90;10.10;;;;;;;17.95;85.69;97283.08;105080;1251;98442;-77
2023/09/14 08:01:11;;;;;;;13.30;10.10;;;;;;;17.95;85.75;97287.61;105034;1257;97122;-77
2023/09/14 08:03:38;;;;;;;10.70;9.30;;;;;;;17.94;85.79;97292.17;105102;1257;97091;-76
2023/09/14 08:06:06;;;;;;;11.10;9.90;;;;;;;17.92;85.67;97293.91;105148;1256;102324;-76
2023/09/14 08:08:34;;;;;;;12.00;9.60;;;;;;;17.90;85.73;97293.02;105110;1255;100070;-79
2023/09/14 08:11:01;;;;;;;10.80;9.60;;;;;;;17.88;85.69;97293.05;105041;1257;98881;-78
2023/09/14 08:13:29;;;;;;;12.10;9.90;;;;;;;17.87;85.75;97293.92;105060;1256;96571;-78
2023/09/14 08:15:57;;;;;;;14.10;10.60;;;;;;;17.85;85.78;97298.72;105114;1256;97897;-78
2023/09/14 08:18:25;;;;;;;12.10;10.30;;;;;;;17.83;85.92;97300.55;105081;1257;100689;-78
2023/09/14 08:20:52;;;;;;;11.00;9.90;;;;;;;17.81;85.89;97299.66;105083;1252;100416;-78
2023/09/14 08:23:20;;;;;;;12.10;9.40;;;;;;;17.80;85.80;97302.55;104825;1273;99175;-78
2023/09/14 08:25:48;;;;;;;11.00;9.80;;;;;;;17.80;86.05;97307.23;104852;1260;96717;-79
2023/09/14 08:28:18;;;;;;;13.50;10.80;;;;;;;17.79;86.15;97308.38;104548;1260;96975;-79
2023/09/14 08:30:47;;;;;;;13.10;11.70;;;;;;;17.80;86.12;97309.15;104824;1257;109796;-79
2023/09/14 08:33:15;;;;;;;16.20;12.70;;;;;;;17.83;86.29;97313.45;104737;1261;101470;-79
2023/09/14 08:35:45;;;;;;;14.50;13.00;;;;;;;17.87;86.18;97316.47;104847;1254;98690;-79
2023/09/14 08:38:13;;;;;;;15.30;12.50;;;;;;;17.90;86.16;97320.92;104563;1271;96721;-79
2023/09/14 08:40:43;;;;;;;11.70;10.40;;;;;;;17.90;86.33;97319.02;104569;1262;98138;-79
2023/09/14 08:43:14;;;;;;;11.10;8.40;;;;;;;17.84;86.21;97320.94;104249;1260;102412;-80
2023/09/14 08:45:42;;;;;;;8.80;7.90;;;;;;;17.74;86.06;97326.52;104534;1260;101270;-79
2023/09/14 08:48:14;;;;;;;7.40;6.70;;;;;;;17.62;86.43;97327.86;104484;1260;99003;-79
2023/09/14 08:50:44;;;;;;;8.20;6.50;;;;;;;17.50;86.53;97329.69;104459;1260;97231;-79
2023/09/14 08:53:14;;;;;;;8.60;5.90;;;;;;;17.41;86.41;97329.59;104604;1262;97297;-79
2023/09/14 08:55:43;;;;;;;7.70;6.10;;;;;;;17.38;86.40;97333.33;104709;1278;101440;-79
2023/09/14 08:58:12;;;;;;;7.40;6.60;;;;;;;17.36;86.56;97335.61;104715;1259;100102;-79
2023/09/14 09:00:42;;;;;;;7.30;6.50;;;;;;;17.34;86.74;97335.73;104721;1259;108283;-78
2023/09/14 09:03:09;;;;;;;8.10;7.40;;;;;;;17.35;86.70;97333.40;104759;1259;96965;-79
2023/09/14 09:05:42;;;;;;;8.60;7.70;;;;;;;17.38;86.52;97335.36;104745;1259;97009;-81
2023/09/14 09:08:11;;;;;;;12.10;9.30;;;;;;;17.42;86.31;97339.80;104714;1259;101882;-82
2023/09/14 09:10:40;;;;;;;10.10;9.10;;;;;;;17.44;86.31;97342.28;104697;1260;101393;-80
2023/09/14 09:13:08;;;;;;;9.60;8.70;;;;;;;17.46;86.18;97342.75;104747;1261;101145;-81
2023/09/14 09:15:38;;;;;;;12.00;9.70;;;;;;;17.47;85.86;97341.51;104743;1260;96660;-81
2023/09/14 09:18:11;;;;;;;11.80;9.20;;;;;;;17.47;85.72;97343.96;104731;1260;97191;-81
2023/09/14 09:20:40;;;;;;;12.60;9.20;;;;;;;17.46;85.86;97347.23;104581;1262;102433;-81
2023/09/14 09:23:09;;;;;;;11.90;8.80;;;;;;;17.47;85.74;97347.30;104733;1267;100622;-81
2023/09/14 09:25:48;;;;;;;11.10;8.70;;;;;;;17.48;85.57;97353.20;104776;1270;99988;-82
2023/09/14 09:28:16;;;;;;;12.10;9.70;;;;;;;17.49;85.49;97356.21;104735;1269;96755;-82
2023/09/14 09:30:45;;;;;;;10.40;9.40;;;;;;;17.49;85.52;97358.52;104515;1265;97003;-81
2023/09/14 09:33:13;;;;;;;11.30;10.20;;;;;;;17.51;85.42;97358.23;104728;1276;102409;-81
2023/09/14 09:35:41;;;;;;;12.80;10.00;;;;;;;17.54;85.46;97366.08;104749;1260;100412;-80
2023/09/14 09:38:18;;;;;;;12.40;11.10;;;;;;;17.55;85.44;97367.07;104746;1259;100267;-81
2023/09/14 09:40:46;;;;;;;12.10;10.30;;;;;;;17.52;85.21;97366.89;104766;1259;96654;-81
2023/09/14 09:43:17;;;;;;;11.60;10.20;;;;;;;17.49;85.11;97365.06;104739;1267;97208;-81
2023/09/14 09:45:46;;;;;;;11.70;10.40;;;;;;;17.48;85.15;97368.76;105061;1256;102400;-81
2023/09/14 09:48:14;;;;;;;12.30;11.10;;;;;;;17.47;85.13;97367.65;104870;1259;99680;-81
2023/09/14 09:50:43;;;;;;;13.30;10.50;;;;;;;17.43;85.34;97370.98;105027;1257;99026;-81
2023/09/14 09:53:11;;;;;;;12.80;11.20;;;;;;;17.40;85.40;97373.51;105089;1257;98018;-81
2023/09/14 09:55:40;;;;;;;13.60;11.30;;;;;;;17.38;85.30;97375.68;104724;1260;96981;-81
2023/09/14 09:58:08;;;;;;;12.60;11.30;;;;;;;17.36;85.22;97376.42;105059;1265;101334;-81
2023/09/14 10:00:39;;;;;;;10.20;8.80;;;;;;;17.35;85.11;97382.62;105108;1270;101052;-80
2023/09/14 10:03:07;;;;;;;13.20;9.60;;;;;;;17.34;85.19;97378.45;105134;1255;99952;-81
2023/09/14 10:05:41;;;;;;;14.30;11.90;;;;;;;17.34;85.35;97378.08;105074;1256;97635;-81
2023/09/14 10:08:17;;;;;;;13.20;11.60;;;;;;;17.35;85.37;97378.75;105087;1257;97489;-81
2023/09/14 10:10:50;;;;;;;15.50;12.30;;;;;;;17.36;85.36;97378.49;105078;1256;102282;-81
2023/09/14 10:13:23;;;;;;;17.80;13.20;;;;;;;17.38;85.60;97379.56;104940;1260;100406;-81
2023/09/14 10:15:56;;;;;;;13.70;11.60;;;;;;;17.40;85.63;97376.61;104638;1253;100379;-82
2023/09/14 10:18:26;;;;;;;12.40;11.00;;;;;;;17.44;85.81;97374.37;104699;1262;97515;-81
2023/09/14 10:20:56;;;;;;;14.40;10.00;;;;;;;17.47;85.64;97376.21;104799;1275;97163;-81
2023/09/14 10:23:24;;;;;;;10.40;9.00;;;;;;;17.47;85.38;97377.04;105100;1266;101387;-79
2023/09/14 10:25:52;;;;;;;10.40;9.30;;;;;;;17.48;85.35;97380.54;105101;1266;100020;-78
2023/09/14 10:28:22;;;;;;;10.60;9.10;;;;;;;17.49;85.38;97380.02;105088;1257;100056;-78
2023/09/14 10:30:51;;;;;;;9.80;7.60;;;;;;;17.52;85.32;97386.91;105044;1255;97887;-78
2023/09/14 10:33:20;;;;;;;9.80;7.50;;;;;;;17.54;85.18;97384.25;104775;1260;97301;-79
2023/09/14 10:35:48;;;;;;;8.80;7.40;;;;;;;17.56;85.18;97385.42;105042;1251;102379;-79
2023/09/14 10:38:17;;;;;;;9.70;7.20;;;;;;;17.57;85.14;97389.15;105280;1252;101422;-78
2023/09/14 10:40:46;;;;;;;7.00;6.30;;;;;;;17.60;85.18;97388.37;105099;1257;100067;-78
2023/09/14 10:43:14;;;;;;;9.60;6.30;;;;;;;17.62;85.04;97387.75;105089;1255;96556;-78
2023/09/14 10:45:45;;;;;;;7.60;5.70;;;;;;;17.65;84.91;97394.11;105094;1267;97118;-79
2023/09/14 10:48:28;;;;;;;5.10;4.20;;;;;;;17.67;84.87;97394.95;105152;1257;102393;-78
2023/09/14 10:51:01;;;;;;;5.70;4.20;;;;;;;17.65;84.38;97395.80;105154;1257;109051;-78
2023/09/14 10:53:30;;;;;;;4.50;4.10;;;;;;;17.59;84.36;97393.05;105108;1251;99765;-78
2023/09/14 10:55:57;;;;;;;6.00;4.00;;;;;;;17.58;84.27;97396.96;104872;1261;96888;-78
2023/09/14 10:58:25;;;;;;;4.00;3.70;;;;;;;17.58;84.31;97397.23;105276;1257;97214;-78
2023/09/14 11:00:58;;;;;;;5.40;3.70;;;;;;;17.59;84.13;97397.38;105110;1257;102217;-77
2023/09/14 11:03:26;;;;;;;4.20;3.80;;;;;;;17.60;84.13;97397.27;104656;1263;101518;-77
2023/09/14 11:05:55;;;;;;;4.60;3.80;;;;;;;17.60;83.93;97399.61;105018;1268;99735;-78
2023/09/14 11:08:27;;;;;;;4.70;4.10;;;;;;;17.60;83.74;97399.73;105086;1255;97063;-78
2023/09/14 11:11:00;;;;;;;5.50;3.80;;;;;;;17.61;83.89;97402.58;104794;1262;96662;-78
2023/09/14 11:13:30;;;;;;;5.80;3.40;;;;;;;17.63;83.74;97402.23;105148;1257;102272;-78
2023/09/14 11:16:14;;;;;;;4.80;3.70;;;;;;;17.66;83.61;97404.67;105135;1257;101163;-78
2023/09/14 11:18:45;;;;;;;4.50;4.10;;;;;;;17.69;83.75;97408.91;105103;1251;99062;-78